sensor_id;sensor_type;location;lat;lon;timestamp;pressure;altitude;pressure_sealevel;temperature;humidity
28008;BME280;15333;50.010;20.020;2023-04-19T00:02:26;98978.88;;;9.73;100.00
28008;BME280;15333;50.010;20.020;2023-04-19T00:05:28;98981.78;;;9.70;100.00
28008;BME280;15333;50.010;20.020;2023-04-19T00:08:29;98978.38;;;9.68;100.00
28008;BME280;15333;50.010;20.020;2023-04-19T00:11:30;98984.47;;;9.70;100.00
28008;BME280;15333;50.010;20.020;2023-04-19T00:14:31;98975.78;;;9.67;100.00
28008;BME280;15333;50.010;20.020;2023-04-19T00:17:32;98971.44;;;9.66;100.00
28008;BME280;15333;50.010;20.020;2023-04-19T00:20:33;98980.41;;;9.65;100.00
28008;BME280;15333;50.010;20.020;2023-04-19T00:23:34;98976.78;;;9.66;100.00
28008;BME280;15333;50.010;20.020;2023-04-19T00:26:35;98974.63;;;9.71;100.00
28008;BME280;15333;50.010;20.020;2023-04-19T00:29:36;98969.38;;;9.69;100.00
28008;BME280;15333;50.010;20.020;2023-04-19T00:32:39;98963.94;;;9.71;100.00
28008;BME280;15333;50.010;20.020;2023-04-19T00:35:40;98960.94;;;9.75;100.00
28008;BME280;15333;50.010;20.020;2023-04-19T00:38:44;98953.69;;;9.77;100.00
28008;BME280;15333;50.010;20.020;2023-04-19T00:41:45;98948.78;;;9.71;100.00
28008;BME280;15333;50.010;20.020;2023-04-19T00:44:46;98947.91;;;9.83;100.00
28008;BME280;15333;50.010;20.020;2023-04-19T00:47:47;98946.63;;;9.76;100.00
28008;BME280;15333;50.010;20.020;2023-04-19T00:50:47;98943.00;;;9.77;100.00
28008;BME280;15333;50.010;20.020;2023-04-19T00:53:48;98939.03;;;9.70;100.00
28008;BME280;15333;50.010;20.020;2023-04-19T00:56:52;98949.19;;;9.65;100.00
28008;BME280;15333;50.010;20.020;2023-04-19T00:59:53;98943.00;;;9.77;100.00
28008;BME280;15333;50.010;20.020;2023-04-19T01:02:54;98937.41;;;9.80;100.00
28008;BME280;15333;50.010;20.020;2023-04-19T01:05:56;98933.38;;;9.62;100.00
28008;BME280;15333;50.010;20.020;2023-04-19T01:08:57;98926.53;;;9.58;100.00
28008;BME280;15333;50.010;20.020;2023-04-19T01:11:59;98927.59;;;9.43;100.00
28008;BME280;15333;50.010;20.020;2023-04-19T01:15:01;98916.16;;;9.41;100.00
28008;BME280;15333;50.010;20.020;2023-04-19T01:18:02;98911.00;;;9.25;100.00
28008;BME280;15333;50.010;20.020;2023-04-19T01:21:03;98909.41;;;9.23;100.00
28008;BME280;15333;50.010;20.020;2023-04-19T01:24:06;98912.59;;;9.28;100.00
28008;BME280;15333;50.010;20.020;2023-04-19T01:27:06;98903.41;;;9.32;100.00
28008;BME280;15333;50.010;20.020;2023-04-19T01:30:08;98904.59;;;9.28;100.00
28008;BME280;15333;50.010;20.020;2023-04-19T01:33:09;98910.47;;;9.33;100.00
28008;BME280;15333;50.010;20.020;2023-04-19T01:36:10;98905.13;;;9.33;100.00
28008;BME280;15333;50.010;20.020;2023-04-19T01:39:11;98902.56;;;9.31;100.00
28008;BME280;15333;50.010;20.020;2023-04-19T01:42:14;98896.78;;;9.25;100.00
28008;BME280;15333;50.010;20.020;2023-04-19T01:45:15;98897.88;;;9.22;100.00
28008;BME280;15333;50.010;20.020;2023-04-19T01:48:16;98895.72;;;9.27;100.00
28008;BME280;15333;50.010;20.020;2023-04-19T01:51:17;98891.00;;;9.31;100.00
28008;BME280;15333;50.010;20.020;2023-04-19T01:54:18;98892.19;;;9.27;100.00
28008;BME280;15333;50.010;20.020;2023-04-19T01:57:18;98886.53;;;9.19;100.00
28008;BME280;15333;50.010;20.020;2023-04-19T02:00:21;98882.69;;;9.23;100.00
28008;BME280;15333;50.010;20.020;2023-04-19T02:03:22;98884.38;;;9.24;100.00
28008;BME280;15333;50.010;20.020;2023-04-19T02:06:23;98880.31;;;9.18;100.00
28008;BME280;15333;50.010;20.020;2023-04-19T02:09:26;98872.84;;;9.11;100.00
28008;BME280;15333;50.010;20.020;2023-04-19T02:12:27;98871.13;;;9.10;100.00
28008;BME280;15333;50.010;20.020;2023-04-19T02:15:28;98862.28;;;9.09;100.00
28008;BME280;15333;50.010;20.020;2023-04-19T02:18:29;98866.00;;;9.07;100.00
28008;BME280;15333;50.010;20.020;2023-04-19T02:21:31;98865.69;;;8.98;100.00
28008;BME280;15333;50.010;20.020;2023-04-19T02:24:32;98862.06;;;8.99;100.00
28008;BME280;15333;50.010;20.020;2023-04-19T02:27:33;98854.47;;;8.93;100.00
28008;BME280;15333;50.010;20.020;2023-04-19T02:30:35;98852.53;;;8.95;100.00
28008;BME280;15333;50.010;20.020;2023-04-19T02:33:36;98846.97;;;8.86;100.00
28008;BME280;15333;50.010;20.020;2023-04-19T02:36:37;98839.06;;;8.84;100.00
28008;BME280;15333;50.010;20.020;2023-04-19T02:39:38;98836.94;;;8.89;100.00
28008;BME280;15333;50.010;20.020;2023-04-19T02:42:41;98842.28;;;8.89;100.00
28008;BME280;15333;50.010;20.020;2023-04-19T02:45:42;98840.78;;;8.85;100.00
28008;BME280;15333;50.010;20.020;2023-04-19T02:48:43;98835.63;;;8.82;100.00
28008;BME280;15333;50.010;20.020;2023-04-19T02:51:44;98832.88;;;8.84;100.00
28008;BME280;15333;50.010;20.020;2023-04-19T02:54:47;98838.22;;;8.84;100.00
28008;BME280;15333;50.010;20.020;2023-04-19T02:57:48;98827.84;;;8.79;100.00
28008;BME280;15333;50.010;20.020;2023-04-19T03:00:49;98827.28;;;8.74;100.00
28008;BME280;15333;50.010;20.020;2023-04-19T03:03:53;98832.63;;;8.74;100.00
28008;BME280;15333;50.010;20.020;2023-04-19T03:06:54;98834.34;;;8.75;100.00
28008;BME280;15333;50.010;20.020;2023-04-19T03:09:55;98826.66;;;8.71;100.00
28008;BME280;15333;50.010;20.020;2023-04-19T03:12:56;98825.81;;;8.70;100.00
28008;BME280;15333;50.010;20.020;2023-04-19T03:15:57;98815.13;;;8.70;100.00
28008;BME280;15333;50.010;20.020;2023-04-19T03:18:58;98825.19;;;8.79;100.00
28008;BME280;15333;50.010;20.020;2023-04-19T03:22:04;98818.56;;;8.72;100.00
28008;BME280;15333;50.010;20.020;2023-04-19T03:25:06;98814.28;;;8.70;100.00
28008;BME280;15333;50.010;20.020;2023-04-19T03:28:09;98816.84;;;8.71;100.00
28008;BME280;15333;50.010;20.020;2023-04-19T03:31:32;98804.03;;;8.76;100.00
28008;BME280;15333;50.010;20.020;2023-04-19T03:34:34;98803.41;;;8.73;100.00
28008;BME280;15333;50.010;20.020;2023-04-19T03:37:35;98792.28;;;8.66;100.00
28008;BME280;15333;50.010;20.020;2023-04-19T03:40:38;98789.06;;;8.61;100.00
28008;BME280;15333;50.010;20.020;2023-04-19T03:43:40;98775.00;;;8.59;100.00
28008;BME280;15333;50.010;20.020;2023-04-19T03:46:40;98769.84;;;8.56;100.00
28008;BME280;15333;50.010;20.020;2023-04-19T03:49:43;98768.38;;;8.52;100.00
28008;BME280;15333;50.010;20.020;2023-04-19T03:52:44;98768.97;;;8.43;100.00
28008;BME280;15333;50.010;20.020;2023-04-19T03:55:47;98763.84;;;8.40;100.00
28008;BME280;15333;50.010;20.020;2023-04-19T03:58:50;98768.63;;;8.35;100.00
28008;BME280;15333;50.010;20.020;2023-04-19T04:01:51;98775.16;;;8.31;100.00
28008;BME280;15333;50.010;20.020;2023-04-19T04:04:53;98769.97;;;8.27;100.00
28008;BME280;15333;50.010;20.020;2023-04-19T04:07:56;98766.53;;;8.25;100.00
28008;BME280;15333;50.010;20.020;2023-04-19T04:10:58;98763.88;;;8.25;100.00
28008;BME280;15333;50.010;20.020;2023-04-19T04:13:59;98762.81;;;8.28;100.00
28008;BME280;15333;50.010;20.020;2023-04-19T04:17:03;98763.50;;;8.32;100.00
28008;BME280;15333;50.010;20.020;2023-04-19T04:20:05;98764.47;;;8.31;100.00
28008;BME280;15333;50.010;20.020;2023-04-19T04:23:09;98770.72;;;8.30;100.00
28008;BME280;15333;50.010;20.020;2023-04-19T04:26:12;98769.81;;;8.31;100.00
28008;BME280;15333;50.010;20.020;2023-04-19T04:29:52;98764.78;;;8.39;100.00
28008;BME280;15333;50.010;20.020;2023-04-19T04:32:54;98773.47;;;8.42;100.00
28008;BME280;15333;50.010;20.020;2023-04-19T04:35:58;98770.03;;;8.40;100.00
28008;BME280;15333;50.010;20.020;2023-04-19T04:39:03;98759.81;;;8.47;100.00
28008;BME280;15333;50.010;20.020;2023-04-19T04:42:06;98768.38;;;8.52;100.00
28008;BME280;15333;50.010;20.020;2023-04-19T04:45:10;98767.00;;;8.59;100.00
28008;BME280;15333;50.010;20.020;2023-04-19T04:48:12;98758.56;;;8.65;100.00
28008;BME280;15333;50.010;20.020;2023-04-19T04:51:13;98750.00;;;8.60;100.00
28008;BME280;15333;50.010;20.020;2023-04-19T04:54:20;98753.00;;;8.55;100.00
28008;BME280;15333;50.010;20.020;2023-04-19T04:57:22;98763.91;;;8.90;100.00
28008;BME280;15333;50.010;20.020;2023-04-19T05:00:24;98748.94;;;9.26;100.00
28008;BME280;15333;50.010;20.020;2023-04-19T05:03:37;98750.75;;;9.38;100.00
28008;BME280;15333;50.010;20.020;2023-04-19T05:06:41;98746.41;;;8.86;100.00
28008;BME280;15333;50.010;20.020;2023-04-19T05:09:44;98745.56;;;8.73;100.00
28008;BME280;15333;50.010;20.020;2023-04-19T05:12:48;98742.66;;;8.51;100.00
28008;BME280;15333;50.010;20.020;2023-04-19T05:15:49;98743.19;;;8.56;100.00
28008;BME280;15333;50.010;20.020;2023-04-19T05:18:50;98742.91;;;8.73;100.00
28008;BME280;15333;50.010;20.020;2023-04-19T05:21:52;98740.00;;;8.76;100.00
28008;BME280;15333;50.010;20.020;2023-04-19T05:24:53;98739.34;;;8.60;100.00
28008;BME280;15333;50.010;20.020;2023-04-19T05:27:56;98743.28;;;8.67;100.00
28008;BME280;15333;50.010;20.020;2023-04-19T05:30:59;98741.28;;;8.71;100.00
28008;BME280;15333;50.010;20.020;2023-04-19T05:34:05;98737.56;;;8.73;100.00
28008;BME280;15333;50.010;20.020;2023-04-19T05:37:06;98741.03;;;8.61;100.00
28008;BME280;15333;50.010;20.020;2023-04-19T05:40:08;98748.72;;;8.53;100.00
28008;BME280;15333;50.010;20.020;2023-04-19T05:43:09;98729.50;;;8.48;100.00
28008;BME280;15333;50.010;20.020;2023-04-19T05:46:11;98733.59;;;8.66;100.00
28008;BME280;15333;50.010;20.020;2023-04-19T05:49:12;98733.47;;;8.55;100.00
28008;BME280;15333;50.010;20.020;2023-04-19T05:52:36;98735.06;;;8.45;100.00
28008;BME280;15333;50.010;20.020;2023-04-19T05:55:38;98738.88;;;8.41;100.00
28008;BME280;15333;50.010;20.020;2023-04-19T05:58:39;98742.72;;;8.37;100.00
28008;BME280;15333;50.010;20.020;2023-04-19T06:01:40;98748.06;;;8.37;100.00
28008;BME280;15333;50.010;20.020;2023-04-19T06:04:41;98742.91;;;8.34;100.00
28008;BME280;15333;50.010;20.020;2023-04-19T06:07:42;98746.53;;;8.33;100.00
28008;BME280;15333;50.010;20.020;2023-04-19T06:10:43;98744.63;;;8.35;100.00
28008;BME280;15333;50.010;20.020;2023-04-19T06:13:46;98742.91;;;8.34;100.00
28008;BME280;15333;50.010;20.020;2023-04-19T06:16:47;98746.53;;;8.33;100.00
28008;BME280;15333;50.010;20.020;2023-04-19T06:19:48;98741.97;;;8.35;100.00
28008;BME280;15333;50.010;20.020;2023-04-19T06:22:49;98741.00;;;8.36;100.00
28008;BME280;15333;50.010;20.020;2023-04-19T06:25:50;98746.34;;;8.36;100.00
28008;BME280;15333;50.010;20.020;2023-04-19T06:28:51;98751.28;;;8.54;100.00
28008;BME280;15333;50.010;20.020;2023-04-19T06:31:52;98751.88;;;8.33;100.00
28008;BME280;15333;50.010;20.020;2023-04-19T06:34:53;98746.78;;;8.42;100.00
28008;BME280;15333;50.010;20.020;2023-04-19T06:37:53;98746.19;;;8.51;100.00
28008;BME280;15333;50.010;20.020;2023-04-19T06:40:54;98737.34;;;8.76;100.00
28008;BME280;15333;50.010;20.020;2023-04-19T06:43:55;98743.94;;;8.96;100.00
28008;BME280;15333;50.010;20.020;2023-04-19T06:46:56;98746.91;;;9.17;100.00
28008;BME280;15333;50.010;20.020;2023-04-19T06:49:57;98746.19;;;8.77;100.00
28008;BME280;15333;50.010;20.020;2023-04-19T06:52:58;98747.91;;;8.65;100.00
28008;BME280;15333;50.010;20.020;2023-04-19T06:56:00;98745.84;;;8.56;100.00
28008;BME280;15333;50.010;20.020;2023-04-19T06:59:02;98747.47;;;8.58;100.00
28008;BME280;15333;50.010;20.020;2023-04-19T07:02:03;98739.34;;;8.60;100.00
28008;BME280;15333;50.010;20.020;2023-04-19T07:05:04;98748.09;;;8.62;100.00
28008;BME280;15333;50.010;20.020;2023-04-19T07:08:05;98744.66;;;8.60;100.00
28008;BME280;15333;50.010;20.020;2023-04-19T07:11:06;98746.38;;;8.61;100.00
28008;BME280;15333;50.010;20.020;2023-04-19T07:14:07;98743.00;;;8.72;100.00
28008;BME280;15333;50.010;20.020;2023-04-19T07:17:08;98748.13;;;8.87;100.00
28008;BME280;15333;50.010;20.020;2023-04-19T07:20:09;98744.91;;;9.08;100.00
28008;BME280;15333;50.010;20.020;2023-04-19T07:23:10;98742.97;;;9.10;100.00
28008;BME280;15333;50.010;20.020;2023-04-19T07:26:11;98741.09;;;8.86;100.00
28008;BME280;15333;50.010;20.020;2023-04-19T07:29:14;98738.81;;;9.18;100.00
28008;BME280;15333;50.010;20.020;2023-04-19T07:32:15;98744.69;;;9.36;100.00
28008;BME280;15333;50.010;20.020;2023-04-19T07:35:16;98743.94;;;9.34;100.00
28008;BME280;15333;50.010;20.020;2023-04-19T07:38:17;98735.25;;;9.43;100.00
28008;BME280;15333;50.010;20.020;2023-04-19T07:41:19;98736.31;;;9.40;100.00
28008;BME280;15333;50.010;20.020;2023-04-19T07:44:19;98735.09;;;9.08;100.00
28008;BME280;15333;50.010;20.020;2023-04-19T07:47:20;98743.84;;;9.23;100.00
28008;BME280;15333;50.010;20.020;2023-04-19T07:50:21;98741.91;;;9.12;100.00
28008;BME280;15333;50.010;20.020;2023-04-19T07:53:24;98747.47;;;9.22;100.00
28008;BME280;15333;50.010;20.020;2023-04-19T07:56:25;98748.97;;;9.13;100.00
28008;BME280;15333;50.010;20.020;2023-04-19T07:59:26;98750.84;;;8.48;100.00
28008;BME280;15333;50.010;20.020;2023-04-19T08:02:27;98747.34;;;8.20;100.00
28008;BME280;15333;50.010;20.020;2023-04-19T08:05:29;98751.97;;;8.04;100.00
28008;BME280;15333;50.010;20.020;2023-04-19T08:08:30;98753.28;;;8.11;100.00
28008;BME280;15333;50.010;20.020;2023-04-19T08:11:31;98749.66;;;8.12;100.00
28008;BME280;15333;50.010;20.020;2023-04-19T08:14:33;98760.91;;;8.03;100.00
28008;BME280;15333;50.010;20.020;2023-04-19T08:17:34;98750.06;;;8.06;100.00
28008;BME280;15333;50.010;20.020;2023-04-19T08:20:35;98748.50;;;8.16;100.00
28008;BME280;15333;50.010;20.020;2023-04-19T08:23:36;98742.41;;;8.14;100.00
28008;BME280;15333;50.010;20.020;2023-04-19T08:26:37;98750.75;;;8.22;100.00
28008;BME280;15333;50.010;20.020;2023-04-19T08:29:38;98752.91;;;8.30;100.00
28008;BME280;15333;50.010;20.020;2023-04-19T08:32:40;98748.06;;;8.37;100.00
28008;BME280;15333;50.010;20.020;2023-04-19T08:35:41;98748.81;;;8.24;100.00
28008;BME280;15333;50.010;20.020;2023-04-19T08:38:42;98748.78;;;8.39;100.00
28008;BME280;15333;50.010;20.020;2023-04-19T08:41:43;98746.94;;;8.26;100.00
28008;BME280;15333;50.010;20.020;2023-04-19T08:44:45;98751.16;;;8.31;100.00
28008;BME280;15333;50.010;20.020;2023-04-19T08:47:47;98760.13;;;8.15;100.00
28008;BME280;15333;50.010;20.020;2023-04-19T08:50:49;98761.84;;;8.16;100.00
28008;BME280;15333;50.010;20.020;2023-04-19T08:53:51;98758.31;;;8.16;100.00
28008;BME280;15333;50.010;20.020;2023-04-19T08:56:52;98756.59;;;8.15;100.00
28008;BME280;15333;50.010;20.020;2023-04-19T08:59:54;98762.84;;;8.01;100.00
28008;BME280;15333;50.010;20.020;2023-04-19T09:02:57;98755.66;;;8.16;100.00
28008;BME280;15333;50.010;20.020;2023-04-19T09:06:00;98760.91;;;8.03;100.00
28008;BME280;15333;50.010;20.020;2023-04-19T09:09:21;98760.91;;;8.03;100.00
28008;BME280;15333;50.010;20.020;2023-04-19T09:12:22;98769.47;;;8.08;100.00
28008;BME280;15333;50.010;20.020;2023-04-19T09:15:35;98766.91;;;8.07;100.00
28008;BME280;15333;50.010;20.020;2023-04-19T09:19:06;98768.66;;;8.20;100.00
28008;BME280;15333;50.010;20.020;2023-04-19T09:22:12;98779.19;;;8.09;100.00
28008;BME280;15333;50.010;20.020;2023-04-19T09:25:23;98766.56;;;7.99;100.00
28008;BME280;15333;50.010;20.020;2023-04-19T09:28:26;98771.78;;;8.00;100.00
28008;BME280;15333;50.010;20.020;2023-04-19T09:31:32;98775.41;;;7.99;100.00
28008;BME280;15333;50.010;20.020;2023-04-19T09:34:34;98768.47;;;8.23;100.00
28008;BME280;15333;50.010;20.020;2023-04-19T09:37:35;98772.16;;;8.35;100.00
28008;BME280;15333;50.010;20.020;2023-04-19T09:40:37;98773.56;;;8.41;100.00
28008;BME280;15333;50.010;20.020;2023-04-19T09:43:38;98778.38;;;7.95;100.00
28008;BME280;15333;50.010;20.020;2023-04-19T09:46:40;98786.91;;;7.73;100.00
28008;BME280;15333;50.010;20.020;2023-04-19T09:49:42;98785.97;;;7.74;100.00
28008;BME280;15333;50.010;20.020;2023-04-19T09:52:45;98791.28;;;7.74;100.00
28008;BME280;15333;50.010;20.020;2023-04-19T09:55:48;98785.78;;;7.90;100.00
28008;BME280;15333;50.010;20.020;2023-04-19T09:58:49;98789.50;;;8.01;100.00
28008;BME280;15333;50.010;20.020;2023-04-19T10:01:54;98789.72;;;7.84;100.00
28008;BME280;15333;50.010;20.020;2023-04-19T10:04:56;98788.97;;;7.82;100.00
28008;BME280;15333;50.010;20.020;2023-04-19T10:08:00;98793.19;;;7.72;100.00
28008;BME280;15333;50.010;20.020;2023-04-19T10:11:02;98790.44;;;7.73;100.00
28008;BME280;15333;50.010;20.020;2023-04-19T10:14:10;98791.00;;;7.64;100.00
28008;BME280;15333;50.010;20.020;2023-04-19T10:17:11;98790.34;;;7.61;100.00
28008;BME280;15333;50.010;20.020;2023-04-19T10:20:19;98787.88;;;7.58;100.00
28008;BME280;15333;50.010;20.020;2023-04-19T10:23:23;98783.50;;;7.57;100.00
28008;BME280;15333;50.010;20.020;2023-04-19T10:26:24;98785.78;;;7.48;100.00
28008;BME280;15333;50.010;20.020;2023-04-19T10:30:02;98785.41;;;7.55;100.00
28008;BME280;15333;50.010;20.020;2023-04-19T10:33:05;98785.59;;;7.52;100.00
28008;BME280;15333;50.010;20.020;2023-04-19T10:36:13;98793.59;;;7.52;100.00
28008;BME280;15333;50.010;20.020;2023-04-19T10:39:40;98789.59;;;7.59;100.00
28008;BME280;15333;50.010;20.020;2023-04-19T10:49:22;98787.47;;;7.78;100.00
28008;BME280;15333;50.010;20.020;2023-04-19T10:52:27;98782.13;;;7.78;100.00
28008;BME280;15333;50.010;20.020;2023-04-19T10:55:32;98792.44;;;7.56;100.00
28008;BME280;15333;50.010;20.020;2023-04-19T11:05:24;98789.34;;;8.17;100.00
28008;BME280;15333;50.010;20.020;2023-04-19T11:08:25;98788.38;;;7.91;100.00
28008;BME280;15333;50.010;20.020;2023-04-19T11:11:26;98779.25;;;7.95;100.00
28008;BME280;15333;50.010;20.020;2023-04-19T11:14:33;98782.53;;;8.25;100.00
28008;BME280;15333;50.010;20.020;2023-04-19T11:17:35;98783.34;;;8.13;100.00
28008;BME280;15333;50.010;20.020;2023-04-19T11:20:38;98768.66;;;8.20;100.00
28008;BME280;15333;50.010;20.020;2023-04-19T11:23:42;98770.97;;;8.12;100.00
28008;BME280;15333;50.010;20.020;2023-04-19T11:26:46;98765.41;;;8.30;100.00
28008;BME280;15333;50.010;20.020;2023-04-19T11:29:50;98771.19;;;8.09;100.00
28008;BME280;15333;50.010;20.020;2023-04-19T11:32:52;98771.09;;;8.38;100.00
28008;BME280;15333;50.010;20.020;2023-04-19T11:35:53;98766.28;;;8.95;100.00
28008;BME280;15333;50.010;20.020;2023-04-19T11:38:54;98754.53;;;9.23;100.00
28008;BME280;15333;50.010;20.020;2023-04-19T11:41:55;98757.41;;;9.20;100.00
28008;BME280;15333;50.010;20.020;2023-04-19T11:44:57;98769.47;;;9.13;100.00
28008;BME280;15333;50.010;20.020;2023-04-19T11:47:59;98760.91;;;9.33;100.00
28008;BME280;15333;50.010;20.020;2023-04-19T11:51:01;98762.19;;;9.40;100.00
28008;BME280;15333;50.010;20.020;2023-04-19T11:54:11;98764.25;;;8.98;100.00
28008;BME280;15333;50.010;20.020;2023-04-19T11:57:13;98763.94;;;9.16;100.00
28008;BME280;15333;50.010;20.020;2023-04-19T12:00:14;98767.88;;;8.97;100.00
28008;BME280;15333;50.010;20.020;2023-04-19T12:03:20;98772.97;;;9.26;100.00
28008;BME280;15333;50.010;20.020;2023-04-19T12:06:28;98779.28;;;9.50;100.00
28008;BME280;15333;50.010;20.020;2023-04-19T12:09:35;98781.63;;;8.91;100.00
28008;BME280;15333;50.010;20.020;2023-04-19T12:12:37;98781.22;;;8.97;100.00
28008;BME280;15333;50.010;20.020;2023-04-19T12:15:45;98773.97;;;9.37;100.00
28008;BME280;15333;50.010;20.020;2023-04-19T12:18:49;98779.84;;;9.30;100.00
28008;BME280;15333;50.010;20.020;2023-04-19T12:21:51;98781.53;;;9.06;100.00
28008;BME280;15333;50.010;20.020;2023-04-19T12:24:52;98786.31;;;8.75;100.00
28008;BME280;15333;50.010;20.020;2023-04-19T12:27:53;98781.19;;;8.72;100.00
28008;BME280;15333;50.010;20.020;2023-04-19T12:30:55;98791.31;;;8.67;100.00
28008;BME280;15333;50.010;20.020;2023-04-19T12:33:55;98782.25;;;8.82;100.00
28008;BME280;15333;50.010;20.020;2023-04-19T12:36:56;98780.16;;;9.13;100.00
28008;BME280;15333;50.010;20.020;2023-04-19T12:39:57;98772.66;;;9.43;100.00
28008;BME280;15333;50.010;20.020;2023-04-19T12:42:58;98778.91;;;9.67;100.00
28008;BME280;15333;50.010;20.020;2023-04-19T12:45:59;98779.09;;;9.28;100.00
28008;BME280;15333;50.010;20.020;2023-04-19T12:49:01;98774.38;;;9.19;100.00
28008;BME280;15333;50.010;20.020;2023-04-19T12:52:01;98777.16;;;9.30;100.00
28008;BME280;15333;50.010;20.020;2023-04-19T12:55:02;98780.06;;;9.01;100.00
28008;BME280;15333;50.010;20.020;2023-04-19T12:58:03;98784.22;;;9.06;100.00
28008;BME280;15333;50.010;20.020;2023-04-19T13:01:04;98780.47;;;9.21;100.00
28008;BME280;15333;50.010;20.020;2023-04-19T13:04:05;98780.34;;;9.35;100.00
28008;BME280;15333;50.010;20.020;2023-04-19T13:07:11;98788.25;;;9.24;100.00
28008;BME280;15333;50.010;20.020;2023-04-19T13:10:11;98784.44;;;9.28;100.00
28008;BME280;15333;50.010;20.020;2023-04-19T13:13:13;98786.31;;;9.51;100.00
28008;BME280;15333;50.010;20.020;2023-04-19T13:16:13;98777.38;;;9.27;100.00
28008;BME280;15333;50.010;20.020;2023-04-19T13:19:14;98782.00;;;9.61;100.00
28008;BME280;15333;50.010;20.020;2023-04-19T13:22:15;98777.34;;;9.39;100.00
28008;BME280;15333;50.010;20.020;2023-04-19T13:25:16;98777.56;;;9.24;100.00
28008;BME280;15333;50.010;20.020;2023-04-19T13:28:17;98778.03;;;9.30;100.00
28008;BME280;15333;50.010;20.020;2023-04-19T13:31:18;98776.97;;;9.08;100.00
28008;BME280;15333;50.010;20.020;2023-04-19T13:34:19;98779.28;;;9.25;100.00
28008;BME280;15333;50.010;20.020;2023-04-19T13:37:20;98783.16;;;9.21;100.00
28008;BME280;15333;50.010;20.020;2023-04-19T13:40:21;98782.50;;;9.17;100.00
28008;BME280;15333;50.010;20.020;2023-04-19T13:43:22;98781.31;;;9.34;100.00
28008;BME280;15333;50.010;20.020;2023-04-19T13:46:23;98778.44;;;9.37;100.00
28008;BME280;15333;50.010;20.020;2023-04-19T13:49:24;98773.03;;;9.62;100.00
28008;BME280;15333;50.010;20.020;2023-04-19T13:52:25;98776.31;;;9.78;100.00
28008;BME280;15333;50.010;20.020;2023-04-19T13:55:26;98768.81;;;9.83;100.00
28008;BME280;15333;50.010;20.020;2023-04-19T13:58:27;98766.09;;;9.96;100.00
28008;BME280;15333;50.010;20.020;2023-04-19T14:01:28;98770.81;;;9.93;100.00
28008;BME280;15333;50.010;20.020;2023-04-19T14:04:31;98765.84;;;9.75;100.00
28008;BME280;15333;50.010;20.020;2023-04-19T14:07:32;98770.81;;;9.56;100.00
28008;BME280;15333;50.010;20.020;2023-04-19T14:10:34;98772.16;;;9.74;100.00
28008;BME280;15333;50.010;20.020;2023-04-19T14:13:35;98765.53;;;9.67;100.00
28008;BME280;15333;50.010;20.020;2023-04-19T14:16:36;98766.03;;;9.36;100.00
28008;BME280;15333;50.010;20.020;2023-04-19T14:19:37;98762.41;;;9.37;100.00
28008;BME280;15333;50.010;20.020;2023-04-19T14:22:38;98762.22;;;9.76;100.00
28008;BME280;15333;50.010;20.020;2023-04-19T14:25:39;98766.94;;;9.73;100.00
28008;BME280;15333;50.010;20.020;2023-04-19T14:28:40;98762.78;;;9.56;100.00
28008;BME280;15333;50.010;20.020;2023-04-19T14:31:41;98764.56;;;9.68;100.00
28008;BME280;15333;50.010;20.020;2023-04-19T14:34:42;98762.06;;;9.91;100.00
28008;BME280;15333;50.010;20.020;2023-04-19T14:37:43;98764.66;;;9.79;100.00
28008;BME280;15333;50.010;20.020;2023-04-19T14:40:45;98767.97;;;9.83;100.00
28008;BME280;15333;50.010;20.020;2023-04-19T14:43:46;98768.31;;;10.02;100.00
28008;BME280;15333;50.010;20.020;2023-04-19T14:46:47;98760.22;;;10.28;99.46
28008;BME280;15333;50.010;20.020;2023-04-19T14:49:48;98760.06;;;10.53;97.57
28008;BME280;15333;50.010;20.020;2023-04-19T14:52:48;98769.69;;;10.55;97.11
28008;BME280;15333;50.010;20.020;2023-04-19T14:55:50;98768.66;;;10.45;94.03
28008;BME280;15333;50.010;20.020;2023-04-19T14:58:54;98764.53;;;10.76;95.07
28008;BME280;15333;50.010;20.020;2023-04-19T15:01:55;98776.50;;;10.59;95.35
28008;BME280;15333;50.010;20.020;2023-04-19T15:04:56;98783.34;;;10.64;94.20
28008;BME280;15333;50.010;20.020;2023-04-19T15:07:57;98776.06;;;10.66;94.17
28008;BME280;15333;50.010;20.020;2023-04-19T15:10:57;98784.81;;;10.68;93.39
28008;BME280;15333;50.010;20.020;2023-04-19T15:13:58;98779.63;;;10.42;95.10
28008;BME280;15333;50.010;20.020;2023-04-19T15:16:59;98790.78;;;10.00;97.88
28008;BME280;15333;50.010;20.020;2023-04-19T15:20:00;98795.47;;;9.72;98.15
28008;BME280;15333;50.010;20.020;2023-04-19T15:23:01;98790.34;;;9.69;98.51
28008;BME280;15333;50.010;20.020;2023-04-19T15:26:03;98792.06;;;9.70;98.94
28008;BME280;15333;50.010;20.020;2023-04-19T15:29:03;98793.56;;;9.62;98.67
28008;BME280;15333;50.010;20.020;2023-04-19T15:32:04;98798.50;;;9.55;99.61
28008;BME280;15333;50.010;20.020;2023-04-19T15:35:05;98796.16;;;9.51;100.00
28008;BME280;15333;50.010;20.020;2023-04-19T15:38:06;98801.47;;;9.63;100.00
28008;BME280;15333;50.010;20.020;2023-04-19T15:41:07;98796.50;;;9.82;99.08
28008;BME280;15333;50.010;20.020;2023-04-19T15:44:08;98801.91;;;9.57;100.00
28008;BME280;15333;50.010;20.020;2023-04-19T15:47:09;98804.72;;;9.43;100.00
28008;BME280;15333;50.010;20.020;2023-04-19T15:50:10;98810.16;;;9.29;100.00
28008;BME280;15333;50.010;20.020;2023-04-19T15:53:11;98815.59;;;9.40;100.00
28008;BME280;15333;50.010;20.020;2023-04-19T15:56:12;98813.56;;;9.31;100.00
28008;BME280;15333;50.010;20.020;2023-04-19T15:59:13;98818.72;;;9.34;100.00
28008;BME280;15333;50.010;20.020;2023-04-19T16:02:14;98810.06;;;9.30;100.00
28008;BME280;15333;50.010;20.020;2023-04-19T16:05:14;98824.81;;;9.36;100.00
28008;BME280;15333;50.010;20.020;2023-04-19T16:08:16;98821.16;;;9.24;100.00